createdAt,value
2018-11-10T00:00:58.117Z,25.90
2018-11-10T00:03:26.318Z,25.23
2018-11-10T00:05:54.687Z,24.43
2018-11-10T00:08:23.710Z,24.47
2018-11-10T00:10:51.714Z,24.57
2018-11-10T00:13:19.887Z,25.50
2018-11-10T00:15:48.143Z,25.77
2018-11-10T00:18:16.674Z,25.23
2018-11-10T00:20:45.086Z,25.50
2018-11-10T00:23:13.708Z,25.07
2018-11-10T00:25:43.562Z,26.23
2018-11-10T00:28:12.157Z,25.83
2018-11-10T00:30:41.050Z,24.70
2018-11-10T00:33:09.505Z,24.93
2018-11-10T00:35:38.290Z,26.10
2018-11-10T00:38:07.142Z,25.13
2018-11-10T00:40:35.538Z,24.27
2018-11-10T00:43:03.749Z,25.40
2018-11-10T00:45:33.557Z,25.10
2018-11-10T00:48:02.119Z,25.50
2018-11-10T00:50:30.525Z,26.55
2018-11-10T00:52:59.246Z,24.37
2018-11-10T00:55:28.126Z,24.97
2018-11-10T00:57:56.246Z,27.10
2018-11-10T01:00:24.858Z,25.10
2018-11-10T01:02:54.614Z,26.67
2018-11-10T01:05:22.823Z,25.88
2018-11-10T01:07:52.014Z,25.33
2018-11-10T01:10:20.497Z,25.00
2018-11-10T01:12:48.818Z,26.03
2018-11-10T01:15:17.538Z,26.10
2018-11-10T01:17:46.397Z,25.37
2018-11-10T01:20:15.085Z,25.35
2018-11-10T01:22:43.620Z,25.77
2018-11-10T01:25:12.485Z,25.50
2018-11-10T01:27:42.486Z,25.57
2018-11-10T01:30:13.259Z,25.20
2018-11-10T01:32:41.757Z,26.40
2018-11-10T01:35:10.219Z,25.40
2018-11-10T01:37:38.761Z,24.97
2018-11-10T01:40:08.652Z,26.23
2018-11-10T01:42:38.027Z,25.23
2018-11-10T01:45:08.670Z,25.60
2018-11-10T01:47:37.026Z,25.30
2018-11-10T01:50:06.875Z,25.73
2018-11-10T01:52:35.549Z,25.00
2018-11-10T01:55:04.471Z,25.70
2018-11-10T01:57:32.958Z,25.10
2018-11-10T02:00:01.757Z,24.50
2018-11-10T02:02:30.373Z,25.20
2018-11-10T02:04:58.664Z,24.63
2018-11-10T02:07:27.817Z,24.57
2018-11-10T02:09:56.294Z,24.97
2018-11-10T02:12:24.744Z,25.03
2018-11-10T02:14:53.097Z,25.83
2018-11-10T02:17:21.437Z,24.30
2018-11-10T02:19:49.801Z,24.50
2018-11-10T02:22:17.905Z,24.13
2018-11-10T02:24:46.453Z,25.73
2018-11-10T02:27:22.436Z,24.03
2018-11-10T02:29:52.295Z,24.77
2018-11-10T02:32:20.956Z,23.80
2018-11-10T02:34:49.760Z,24.33
2018-11-10T02:37:18.177Z,24.03
2018-11-10T02:42:45.761Z,24.27
2018-11-10T02:45:14.845Z,23.67
2018-11-10T02:47:43.962Z,23.60
2018-11-10T02:50:12.750Z,22.67
2018-11-10T02:52:41.291Z,23.37
2018-11-10T02:55:11.398Z,23.30
2018-11-10T02:57:41.334Z,23.83
2018-11-10T03:00:10.986Z,22.97
2018-11-10T03:02:39.707Z,26.48
2018-11-10T03:05:08.613Z,26.63
2018-11-10T03:07:37.711Z,24.13
2018-11-10T03:10:08.201Z,22.60
2018-11-10T03:12:36.749Z,22.33
2018-11-10T03:15:05.806Z,21.27
2018-11-10T03:17:34.261Z,22.67
2018-11-10T03:20:02.582Z,23.63
2018-11-10T03:22:30.758Z,22.80
2018-11-10T03:25:29.730Z,24.03
2018-11-10T03:27:58.061Z,24.17
2018-11-10T03:30:26.180Z,24.27
2018-11-10T03:32:54.793Z,22.60
2018-11-10T03:35:23.822Z,24.60
2018-11-10T03:37:53.349Z,22.93
2018-11-10T03:40:22.144Z,21.57
2018-11-10T03:42:51.093Z,21.40
2018-11-10T03:45:19.666Z,24.47
2018-11-10T03:47:48.256Z,23.27
2018-11-10T03:50:17.193Z,22.90
2018-11-10T03:52:45.779Z,24.20
2018-11-10T03:55:14.022Z,23.30
2018-11-10T03:57:42.143Z,23.47
2018-11-10T04:00:12.191Z,22.83
2018-11-10T04:06:14.129Z,20.80
2018-11-10T04:08:42.708Z,22.33
2018-11-10T04:11:12.222Z,21.10
2018-11-10T04:13:41.130Z,20.97
2018-11-10T04:16:10.277Z,22.20
2018-11-10T04:18:39.146Z,21.23
2018-11-10T04:21:07.277Z,20.07
2018-11-10T04:23:35.460Z,20.12
2018-11-10T04:26:04.178Z,20.70
2018-11-10T04:28:32.302Z,18.97
2018-11-10T04:31:00.515Z,21.23
2018-11-10T04:33:29.269Z,20.10
2018-11-10T04:35:58.037Z,19.97
2018-11-10T04:38:27.126Z,20.87
2018-11-10T04:40:55.959Z,18.80
2018-11-10T04:43:25.857Z,20.03
2018-11-10T04:45:55.430Z,19.17
2018-11-10T04:48:23.953Z,18.73
2018-11-10T04:50:53.117Z,18.37
2018-11-10T04:53:22.024Z,18.90
2018-11-10T04:55:50.230Z,17.70
2018-11-10T04:58:19.745Z,18.20
2018-11-10T05:00:48.610Z,17.57
2018-11-10T05:03:17.503Z,16.67
2018-11-10T05:05:45.778Z,17.67
2018-11-10T05:08:14.224Z,16.87
2018-11-10T05:10:43.791Z,16.33
2018-11-10T05:13:13.188Z,16.67
2018-11-10T05:15:41.640Z,17.70
2018-11-10T05:18:11.824Z,16.60
2018-11-10T05:20:39.906Z,16.40
2018-11-10T05:23:08.009Z,15.97
2018-11-10T05:25:36.594Z,16.80
2018-11-10T05:28:05.617Z,16.40
2018-11-10T05:30:35.241Z,16.97
2018-11-10T05:33:04.725Z,18.40
2018-11-10T05:35:33.054Z,17.73
2018-11-10T05:38:01.688Z,16.33
2018-11-10T05:40:29.869Z,17.33
2018-11-10T05:42:58.002Z,17.13
2018-11-10T05:45:26.820Z,17.23
2018-11-10T05:47:55.609Z,16.40
2018-11-10T05:50:23.669Z,16.13
2018-11-10T05:52:52.401Z,16.27
2018-11-10T05:55:21.530Z,17.10
2018-11-10T05:57:49.947Z,16.43
2018-11-10T06:00:19.610Z,16.63
2018-11-10T06:02:48.838Z,16.27
2018-11-10T06:05:17.689Z,17.30
2018-11-10T06:07:46.765Z,17.33
2018-11-10T06:10:15.955Z,17.47
2018-11-10T06:12:44.165Z,15.50
2018-11-10T06:15:13.150Z,16.93
2018-11-10T06:17:41.569Z,15.93
2018-11-10T06:20:11.303Z,16.43
2018-11-10T06:22:40.268Z,16.67
2018-11-10T06:25:10.738Z,16.90
2018-11-10T06:27:40.401Z,16.40
2018-11-10T06:30:11.063Z,17.13
2018-11-10T06:32:40.209Z,15.77
2018-11-10T06:35:10.269Z,16.83
2018-11-10T06:37:40.289Z,16.50
2018-11-10T06:40:10.414Z,15.57
2018-11-10T06:42:39.846Z,16.20
2018-11-10T06:45:09.765Z,16.23
2018-11-10T06:47:38.625Z,15.55
2018-11-10T06:50:09.769Z,15.97
2018-11-10T06:52:38.375Z,16.70
2018-11-10T06:55:07.398Z,15.73
2018-11-10T06:57:36.129Z,15.95
2018-11-10T07:00:04.558Z,15.57
2018-11-10T07:02:33.555Z,15.60
2018-11-10T07:05:01.647Z,16.50
2018-11-10T07:07:30.505Z,16.70
2018-11-10T07:09:58.637Z,16.77
2018-11-10T07:12:27.673Z,16.65
2018-11-10T07:14:56.526Z,16.57
2018-11-10T07:17:24.878Z,18.20
2018-11-10T07:19:53.485Z,19.37
2018-11-10T07:22:22.347Z,17.17
2018-11-10T07:24:50.747Z,17.67
2018-11-10T07:27:19.181Z,17.10
2018-11-10T07:29:48.379Z,18.03
2018-11-10T07:32:16.661Z,18.20
2018-11-10T07:34:44.785Z,17.37
2018-11-10T07:37:13.719Z,16.67
2018-11-10T07:39:42.918Z,17.23
2018-11-10T07:42:11.546Z,16.57
2018-11-10T07:44:40.246Z,15.03
2018-11-10T07:47:09.329Z,16.20
2018-11-10T07:49:38.765Z,16.47
2018-11-10T07:52:08.758Z,15.87
2018-11-10T07:54:38.193Z,15.20
2018-11-10T07:57:06.695Z,15.40
2018-11-10T07:59:35.330Z,15.88
2018-11-10T08:02:06.205Z,15.07
2018-11-10T08:04:34.891Z,15.05
2018-11-10T08:07:03.483Z,15.70
2018-11-10T08:09:32.565Z,14.87
2018-11-10T08:12:00.787Z,12.73
2018-11-10T08:14:28.885Z,12.27
2018-11-10T08:16:57.155Z,12.87
2018-11-10T08:19:26.831Z,12.73
2018-11-10T08:21:55.710Z,12.17
2018-11-10T08:24:24.017Z,12.63
2018-11-10T08:26:52.340Z,11.37
2018-11-10T08:29:20.691Z,11.57
2018-11-10T08:31:48.961Z,11.17
2018-11-10T08:34:17.733Z,11.20
2018-11-10T08:36:46.265Z,10.80
2018-11-10T08:39:14.426Z,10.57
2018-11-10T08:41:42.594Z,10.10
2018-11-10T08:44:11.654Z,8.87
2018-11-10T08:46:40.610Z,9.90
2018-11-10T08:49:09.678Z,8.90
2018-11-10T08:51:38.122Z,8.73
2018-11-10T08:54:07.174Z,8.53
2018-11-10T08:56:35.970Z,9.28
2018-11-10T08:59:04.767Z,9.70
2018-11-10T09:01:33.622Z,9.10
2018-11-10T09:04:01.802Z,8.40
2018-11-10T09:06:30.222Z,9.17
2018-11-10T09:08:58.441Z,9.27
2018-11-10T09:11:26.668Z,8.17
2018-11-10T09:13:54.789Z,8.83
2018-11-10T09:16:24.268Z,8.83
2018-11-10T09:18:53.062Z,9.03
2018-11-10T09:21:21.849Z,9.03
2018-11-10T09:23:49.836Z,9.33
2018-11-10T09:26:18.298Z,8.60
2018-11-10T09:28:46.502Z,8.93
2018-11-10T09:31:14.694Z,9.43
2018-11-10T09:33:42.906Z,9.17
2018-11-10T09:36:11.006Z,9.53
2018-11-10T09:38:40.034Z,8.53
2018-11-10T09:41:09.341Z,9.57
2018-11-10T09:43:37.505Z,9.23
2018-11-10T09:46:06.094Z,8.87
2018-11-10T09:48:36.141Z,9.17
2018-11-10T09:51:05.267Z,9.60
2018-11-10T09:53:33.949Z,9.05
2018-11-10T09:56:02.534Z,9.23
2018-11-10T09:58:31.189Z,9.70
2018-11-10T10:00:59.754Z,8.83
2018-11-10T10:03:27.909Z,9.70
2018-11-10T10:05:56.063Z,8.83
2018-11-10T10:08:24.553Z,9.07
2018-11-10T10:10:53.873Z,8.40
2018-11-10T10:13:23.566Z,8.58
2018-11-10T10:15:52.068Z,8.43
2018-11-10T10:18:20.506Z,8.23
2018-11-10T10:20:49.625Z,7.27
2018-11-10T10:23:18.511Z,8.20
2018-11-10T10:25:47.426Z,7.40
2018-11-10T10:28:17.865Z,7.00
2018-11-10T10:30:46.008Z,7.43
2018-11-10T10:33:14.241Z,7.03
2018-11-10T10:35:42.630Z,6.47
2018-11-10T10:38:10.991Z,6.87
2018-11-10T10:40:39.521Z,6.80
2018-11-10T10:43:07.852Z,6.57
2018-11-10T10:45:35.880Z,6.07
2018-11-10T10:48:04.117Z,6.50
2018-11-10T10:50:32.529Z,5.42
2018-11-10T10:53:01.277Z,6.43
2018-11-10T10:55:29.358Z,5.75
2018-11-10T10:57:57.671Z,5.90
2018-11-10T11:00:31.338Z,5.47
2018-11-10T11:03:05.350Z,6.57
2018-11-10T11:05:39.835Z,5.67
2018-11-10T11:08:09.594Z,5.80
2018-11-10T11:10:37.854Z,5.50
2018-11-10T11:13:06.478Z,6.40
2018-11-10T11:15:34.763Z,5.70
2018-11-10T11:18:02.854Z,5.27
2018-11-10T11:20:31.658Z,5.08
2018-11-10T11:23:00.579Z,6.00
2018-11-10T11:25:28.684Z,5.50
2018-11-10T11:27:57.533Z,4.90
2018-11-10T11:30:25.741Z,5.92
2018-11-10T11:32:53.919Z,4.90
2018-11-10T11:35:22.604Z,5.53
2018-11-10T11:37:51.433Z,5.40
2018-11-10T11:40:20.379Z,5.60
2018-11-10T11:42:48.571Z,5.73
2018-11-10T11:45:16.725Z,5.37
2018-11-10T11:47:44.925Z,4.40
2018-11-10T11:50:14.458Z,5.20
2018-11-10T11:52:43.509Z,4.97
2018-11-10T11:55:12.572Z,5.37
2018-11-10T11:57:41.048Z,5.17
2018-11-10T12:00:11.218Z,4.93
2018-11-10T12:02:39.796Z,4.80
2018-11-10T12:05:09.391Z,5.13
2018-11-10T12:07:38.458Z,5.00
2018-11-10T12:10:07.553Z,4.93
2018-11-10T12:12:35.760Z,4.77
2018-11-10T12:15:03.946Z,4.87
2018-11-10T12:17:32.025Z,4.78
2018-11-10T12:20:00.946Z,4.40
2018-11-10T12:22:29.244Z,4.93
2018-11-10T12:24:58.090Z,4.80
2018-11-10T12:27:28.189Z,4.90
2018-11-10T12:29:56.332Z,4.63
2018-11-10T12:32:25.153Z,4.30
2018-11-10T12:34:54.341Z,4.40
2018-11-10T12:37:23.461Z,4.70
2018-11-10T12:39:52.389Z,4.73
2018-11-10T12:42:22.840Z,5.13
2018-11-10T12:44:51.158Z,5.37
2018-11-10T12:47:20.161Z,5.63
2018-11-10T12:49:48.390Z,5.53
2018-11-10T12:52:16.622Z,5.33
2018-11-10T12:54:45.952Z,5.30
2018-11-10T12:57:15.589Z,5.43
2018-11-10T12:59:44.014Z,6.03
2018-11-10T13:02:13.168Z,6.70
2018-11-10T13:04:41.341Z,6.23
2018-11-10T13:07:09.570Z,6.37
2018-11-10T13:09:39.122Z,6.25
2018-11-10T13:12:09.116Z,7.00
2018-11-10T13:14:37.595Z,5.73
2018-11-10T13:17:06.091Z,5.63
2018-11-10T13:19:34.290Z,5.80
2018-11-10T13:22:02.705Z,5.80
2018-11-10T13:24:31.026Z,5.45
2018-11-10T13:26:59.619Z,5.97
2018-11-10T13:29:28.182Z,6.25
2018-11-10T13:31:56.327Z,5.80
2018-11-10T13:34:25.041Z,5.47
2018-11-10T13:36:54.642Z,5.67
2018-11-10T13:39:22.871Z,6.57
2018-11-10T13:41:51.462Z,5.63
2018-11-10T13:44:20.318Z,5.90
2018-11-10T13:46:49.596Z,5.27
2018-11-10T13:49:17.943Z,7.50
2018-11-10T13:51:46.845Z,6.40
2018-11-10T13:54:16.470Z,5.23
2018-11-10T13:56:44.725Z,5.40
2018-11-10T13:59:13.580Z,5.90
2018-11-10T14:01:42.374Z,5.70
2018-11-10T14:04:11.550Z,5.27
2018-11-10T14:06:39.726Z,5.10
2018-11-10T14:09:09.637Z,5.50
2018-11-10T14:11:37.882Z,5.17
2018-11-10T14:14:07.946Z,5.03
2018-11-10T14:16:36.150Z,5.57
2018-11-10T14:19:04.970Z,5.60
2018-11-10T14:21:33.745Z,5.47
2018-11-10T14:24:02.775Z,4.93
2018-11-10T14:26:31.523Z,5.33
2018-11-10T14:28:59.857Z,4.87
2018-11-10T14:31:27.992Z,5.70
2018-11-10T14:33:56.722Z,5.70
2018-11-10T14:36:24.913Z,5.70
2018-11-10T14:38:53.642Z,5.63
2018-11-10T14:41:22.057Z,6.17
2018-11-10T14:43:50.149Z,6.33
2018-11-10T14:46:18.289Z,6.27
2018-11-10T14:48:47.042Z,5.97
2018-11-10T14:51:17.078Z,5.37
2018-11-10T14:53:45.659Z,5.70
2018-11-10T14:56:14.105Z,6.00
2018-11-10T14:58:42.645Z,5.77
2018-11-10T15:01:11.001Z,5.90
2018-11-10T15:03:39.909Z,5.37
2018-11-10T15:06:08.084Z,6.17
2018-11-10T15:08:36.225Z,5.83
2018-11-10T15:11:05.186Z,6.17
2018-11-10T15:13:34.570Z,7.20
2018-11-10T15:16:03.502Z,6.30
2018-11-10T15:18:32.311Z,6.77
2018-11-10T15:21:01.237Z,7.12
2018-11-10T15:23:30.184Z,6.00
2018-11-10T15:25:59.017Z,6.40
2018-11-10T15:28:27.161Z,6.08
2018-11-10T15:30:55.369Z,6.30
2018-11-10T15:38:17.609Z,7.23
2018-11-10T15:40:45.994Z,7.07
2018-11-10T15:43:14.824Z,6.90
2018-11-10T15:45:43.249Z,7.37
2018-11-10T15:48:12.069Z,7.63
2018-11-10T15:50:41.024Z,7.30
2018-11-10T15:53:09.806Z,7.20
2018-11-10T15:55:38.481Z,7.05
2018-11-10T15:58:07.982Z,8.20
2018-11-10T16:00:36.959Z,8.43
2018-11-10T16:03:05.435Z,8.20
2018-11-10T16:05:33.582Z,8.63
2018-11-10T16:08:01.698Z,8.73
2018-11-10T16:10:31.049Z,8.50
2018-11-10T16:12:59.333Z,8.73
2018-11-10T16:15:27.946Z,8.67
2018-11-10T16:17:56.090Z,9.40
2018-11-10T16:20:25.861Z,9.37
2018-11-10T16:22:53.959Z,9.77
2018-11-10T16:25:22.800Z,9.87
2018-11-10T16:27:50.886Z,9.57
2018-11-10T16:30:19.690Z,10.03
2018-11-10T16:32:48.865Z,10.27
2018-11-10T16:35:17.269Z,10.13
2018-11-10T16:37:45.947Z,10.07
2018-11-10T16:40:16.353Z,10.90
2018-11-10T16:42:45.290Z,11.37
2018-11-10T16:45:15.837Z,10.77
2018-11-10T16:47:44.593Z,10.03
2018-11-10T16:50:13.294Z,9.80
2018-11-10T16:52:43.460Z,12.40
2018-11-10T16:55:11.884Z,10.80
2018-11-10T16:57:40.850Z,11.43
2018-11-10T17:00:12.740Z,11.57
2018-11-10T17:02:41.431Z,11.13
2018-11-10T17:05:10.641Z,12.83
2018-11-10T17:07:39.834Z,11.60
2018-11-10T17:10:11.435Z,12.40
2018-11-10T17:12:39.699Z,13.40
2018-11-10T17:15:08.195Z,13.10
2018-11-10T17:17:36.627Z,12.13
2018-11-10T17:20:06.614Z,12.73
2018-11-10T17:22:36.017Z,11.78
2018-11-10T17:25:05.582Z,13.43
2018-11-10T17:27:33.893Z,13.03
2018-11-10T17:30:02.950Z,12.00
2018-11-10T17:32:31.015Z,12.47
2018-11-10T17:34:59.846Z,12.90
2018-11-10T17:37:28.421Z,12.35
2018-11-10T17:39:56.774Z,11.43
2018-11-10T17:42:24.990Z,12.13
2018-11-10T17:44:53.357Z,13.13
2018-11-10T17:47:22.645Z,13.20
2018-11-10T17:49:51.193Z,12.87
2018-11-10T17:52:20.762Z,13.20
2018-11-10T17:54:49.314Z,14.20
2018-11-10T17:57:18.338Z,13.17
2018-11-10T17:59:47.699Z,13.33
2018-11-10T18:02:16.943Z,14.13
2018-11-10T18:04:45.292Z,13.17
2018-11-10T18:07:14.578Z,13.73
2018-11-10T18:09:42.745Z,13.63
2018-11-10T18:12:11.582Z,12.73
2018-11-10T18:14:39.729Z,12.83
2018-11-10T18:17:07.865Z,13.23
2018-11-10T18:19:37.087Z,14.70
2018-11-10T18:22:06.871Z,13.10
2018-11-10T18:24:35.064Z,13.20
2018-11-10T18:29:47.323Z,14.90
2018-11-10T18:32:15.664Z,13.63
2018-11-10T18:34:44.081Z,14.00
2018-11-10T18:37:12.534Z,14.23
2018-11-10T18:39:41.186Z,14.20
2018-11-10T18:42:09.945Z,14.23
2018-11-10T18:44:38.206Z,14.68
2018-11-10T18:47:06.706Z,14.57
2018-11-10T18:50:37.812Z,14.33
2018-11-10T18:53:05.999Z,13.53
2018-11-10T18:55:34.137Z,14.68
2018-11-10T18:58:02.513Z,16.13
2018-11-10T19:00:30.861Z,14.28
2018-11-10T19:02:59.329Z,14.97
2018-11-10T19:05:27.705Z,15.83
2018-11-10T19:07:55.838Z,13.90
2018-11-10T19:10:23.986Z,15.17
2018-11-10T19:12:52.475Z,14.40
2018-11-10T19:15:21.614Z,16.37
2018-11-10T19:17:51.122Z,14.90
2018-11-10T19:20:20.072Z,14.78
2018-11-10T19:22:48.512Z,16.63
2018-11-10T19:25:16.833Z,16.10
2018-11-10T19:27:45.256Z,14.90
2018-11-10T19:30:15.545Z,14.60
2018-11-10T19:32:45.484Z,13.43
2018-11-10T19:35:14.095Z,13.63
2018-11-10T19:37:42.261Z,14.17
2018-11-10T19:40:12.067Z,14.20
2018-11-10T19:42:41.054Z,13.08
2018-11-10T19:45:10.989Z,13.80
2018-11-10T19:47:40.345Z,16.80
2018-11-10T19:50:09.635Z,13.13
2018-11-10T19:52:37.657Z,12.50
2018-11-10T19:55:09.867Z,13.80
2018-11-10T19:57:38.893Z,13.30
2018-11-10T20:00:11.269Z,17.00
2018-11-10T20:02:39.624Z,12.63
2018-11-10T20:05:08.181Z,12.20
2018-11-10T20:07:37.084Z,12.13
2018-11-10T20:10:05.765Z,11.60
2018-11-10T20:12:33.962Z,10.72
2018-11-10T20:15:04.306Z,11.20
2018-11-10T20:17:33.055Z,11.15
2018-11-10T20:20:01.137Z,10.70
2018-11-10T20:22:29.233Z,11.07
2018-11-10T20:24:57.458Z,11.30
2018-11-10T20:27:26.374Z,10.63
2018-11-10T20:29:54.543Z,10.90
2018-11-10T20:32:22.654Z,11.00
2018-11-10T20:34:50.827Z,11.27
2018-11-10T20:37:19.014Z,10.47
2018-11-10T20:39:47.145Z,23.80
2018-11-10T20:42:15.630Z,13.33
2018-11-10T20:44:43.797Z,13.83
2018-11-10T20:47:12.523Z,17.77
2018-11-10T20:49:40.710Z,12.23
2018-11-10T20:52:09.119Z,11.03
2018-11-10T20:54:37.801Z,9.70
2018-11-10T20:57:05.873Z,9.50
2018-11-10T20:59:35.482Z,9.97
2018-11-10T21:02:05.051Z,8.87
2018-11-10T21:04:33.182Z,9.50
2018-11-10T21:07:01.819Z,9.13
2018-11-10T21:09:30.894Z,8.85
2018-11-10T21:12:00.771Z,8.97
2018-11-10T21:14:28.985Z,8.75
2018-11-10T21:16:57.461Z,7.47
2018-11-10T21:19:26.444Z,7.43
2018-11-10T21:21:55.181Z,8.20
2018-11-10T21:24:23.366Z,7.90
2018-11-10T21:26:52.402Z,8.53
2018-11-10T21:29:20.639Z,7.73
2018-11-10T21:31:49.659Z,8.20
2018-11-10T21:34:18.349Z,7.37
2018-11-10T21:36:46.673Z,8.00
2018-11-10T21:39:14.788Z,7.43
2018-11-10T21:41:43.156Z,9.03
2018-11-10T21:44:11.402Z,7.27
2018-11-10T21:46:40.049Z,7.28
2018-11-10T21:49:09.505Z,7.40
2018-11-10T21:51:38.121Z,6.70
2018-11-10T21:54:07.253Z,6.53
2018-11-10T21:56:35.428Z,6.80
2018-11-10T21:59:03.873Z,6.97
2018-11-10T22:01:32.074Z,9.83
2018-11-10T22:04:00.466Z,6.90
2018-11-10T22:06:29.414Z,6.65
2018-11-10T22:08:58.504Z,7.00
2018-11-10T22:11:27.319Z,6.83
2018-11-10T22:13:55.934Z,5.93
2018-11-10T22:16:24.196Z,6.60
2018-11-10T22:18:52.518Z,6.00
2018-11-10T22:21:21.367Z,6.60
2018-11-10T22:23:49.742Z,6.43
2018-11-10T22:26:22.719Z,6.27
2018-11-10T22:28:51.422Z,6.53
2018-11-10T22:31:20.239Z,6.70
2018-11-10T22:33:48.571Z,5.57
2018-11-10T22:36:19.968Z,6.10
2018-11-10T22:38:48.061Z,5.87
2018-11-10T22:41:17.031Z,6.40
2018-11-10T22:43:46.082Z,6.07
2018-11-10T22:46:15.337Z,6.00
2018-11-10T22:48:43.547Z,5.67
2018-11-10T22:51:12.859Z,7.13
2018-11-10T22:53:41.552Z,6.23
2018-11-10T22:56:10.399Z,6.03
2018-11-10T22:58:38.637Z,5.93
2018-11-10T23:01:08.706Z,6.10
2018-11-10T23:03:37.459Z,6.65
2018-11-10T23:06:05.997Z,6.47
2018-11-10T23:08:34.187Z,6.03
2018-11-10T23:11:02.390Z,5.80
2018-11-10T23:13:30.605Z,5.37
2018-11-10T23:15:58.717Z,5.20
2018-11-10T23:18:27.182Z,6.03
2018-11-10T23:20:55.754Z,5.33
2018-11-10T23:23:24.495Z,5.10
2018-11-10T23:25:52.607Z,5.23
2018-11-10T23:28:20.993Z,6.23
2018-11-10T23:30:50.105Z,5.70
2018-11-10T23:33:19.079Z,5.53
2018-11-10T23:35:47.134Z,5.97
2018-11-10T23:38:16.570Z,5.53
2018-11-10T23:40:45.045Z,6.10
2018-11-10T23:43:13.782Z,5.60
2018-11-10T23:45:42.634Z,5.67
2018-11-10T23:48:11.213Z,4.97
2018-11-10T23:50:40.689Z,5.60
2018-11-10T23:53:08.970Z,5.37
2018-11-10T23:55:37.187Z,5.43
2018-11-10T23:58:05.760Z,5.57
